createdAt,value
2018-06-23T00:00:32.405Z,17.12
2018-06-23T00:01:32.394Z,15.98
2018-06-23T00:02:32.639Z,14.93
2018-06-23T00:03:32.629Z,14.74
2018-06-23T00:04:32.621Z,13.89
2018-06-23T00:05:32.611Z,13.12
2018-06-23T00:06:32.600Z,12.27
2018-06-23T00:07:32.332Z,11.79
2018-06-23T00:08:32.577Z,11.13
2018-06-23T00:09:32.580Z,10.27
2018-06-23T00:10:32.560Z,9.22
2018-06-23T00:11:32.550Z,7.98
2018-06-23T00:12:32.541Z,7.42
2018-06-23T00:13:32.273Z,6.84
2018-06-23T00:14:32.523Z,6.27
2018-06-23T00:15:32.509Z,5.99
2018-06-23T00:16:32.498Z,5.9
2018-06-23T00:17:32.491Z,5.22
2018-06-23T00:18:32.481Z,5.04
2018-06-23T00:19:32.466Z,5.71
2018-06-23T00:20:32.459Z,6.46
2018-06-23T00:21:32.446Z,7.23
2018-06-23T00:22:32.180Z,7.03
2018-06-23T00:23:32.170Z,7.22
2018-06-23T00:24:32.425Z,7.51
2018-06-23T00:25:32.405Z,7.6
2018-06-23T00:26:32.139Z,7.42
2018-06-23T00:27:32.386Z,7.51
2018-06-23T00:28:32.383Z,8.36
2018-06-23T00:29:32.365Z,8.56
2018-06-23T00:30:32.358Z,9.8
2018-06-23T00:31:32.087Z,10.64
2018-06-23T00:32:32.075Z,10.83
2018-06-23T00:33:32.067Z,10.17
2018-06-23T00:34:32.056Z,10.46
2018-06-23T00:35:32.299Z,11.41
2018-06-23T00:36:32.033Z,12.64
2018-06-23T00:37:32.283Z,14.07
2018-06-23T00:38:32.272Z,14.46
2018-06-23T00:39:32.263Z,14.73
2018-06-23T00:40:32.254Z,15.02
2018-06-23T00:41:31.984Z,14.92
2018-06-23T00:42:31.974Z,15.11
2018-06-23T00:43:32.220Z,14.83
2018-06-23T00:44:32.210Z,15.5
2018-06-23T00:45:32.199Z,16.45
2018-06-23T00:46:32.187Z,15.88
2018-06-23T00:47:32.177Z,15.78
2018-06-23T00:48:32.165Z,14.92
2018-06-23T00:49:32.156Z,15.5
2018-06-23T00:50:32.146Z,15.97
2018-06-23T00:51:32.132Z,16.73
2018-06-23T00:52:31.867Z,17.12
2018-06-23T00:53:32.118Z,18.35
2018-06-23T00:54:32.103Z,18.73
2018-06-23T00:55:32.094Z,18.73
2018-06-23T00:56:32.090Z,19.39
2018-06-23T00:57:31.816Z,19.87
2018-06-23T00:58:32.059Z,20.06
2018-06-23T00:59:32.057Z,19.96
2018-06-23T01:00:32.047Z,18.92
2018-06-23T01:01:32.030Z,19.01
2018-06-23T01:02:31.762Z,19.2
2018-06-23T01:03:32.013Z,19.68
2018-06-23T01:04:31.999Z,19.78
2018-06-23T01:05:31.734Z,20.06
2018-06-23T01:06:31.719Z,21.01
2018-06-23T01:07:31.967Z,21.67
2018-06-23T01:08:31.954Z,21.48
2018-06-23T01:09:31.943Z,21.2
2018-06-23T01:10:31.678Z,20.73
2018-06-23T01:11:31.671Z,20.44
2018-06-23T01:12:31.657Z,19.96
2018-06-23T01:13:31.645Z,19.59
2018-06-23T01:14:31.894Z,19.38
2018-06-23T01:15:31.880Z,18.82
2018-06-23T01:16:31.616Z,18.81
2018-06-23T01:17:31.865Z,19.01
2018-06-23T01:18:31.859Z,17.86
2018-06-23T01:19:31.838Z,18.05
2018-06-23T01:20:31.828Z,17.86
2018-06-23T01:21:31.821Z,17.29
2018-06-23T01:22:31.807Z,17.1
2018-06-23T01:23:31.539Z,16.15
2018-06-23T01:24:31.787Z,16.15
2018-06-23T01:25:31.777Z,15.11
2018-06-23T01:26:31.762Z,14.63
2018-06-23T01:27:31.753Z,14.15
2018-06-23T01:28:31.486Z,13.59
2018-06-23T01:29:31.734Z,13.3
2018-06-23T01:30:31.719Z,13.02
2018-06-23T01:31:31.450Z,12.26
2018-06-23T01:32:31.698Z,10.83
2018-06-23T01:33:31.685Z,9.88
2018-06-23T01:34:31.680Z,9.12
2018-06-23T01:35:31.665Z,8.45
2018-06-23T01:36:31.652Z,8.07
2018-06-23T01:37:31.387Z,8.26
2018-06-23T01:38:31.814Z,8.26
2018-06-23T01:39:31.632Z,8.64
2018-06-23T01:40:31.609Z,9.03
2018-06-23T01:41:31.596Z,9.31
2018-06-23T01:42:31.587Z,9.69
2018-06-23T01:43:31.573Z,10.36
2018-06-23T01:44:31.569Z,10.45
2018-06-23T01:45:31.296Z,10.17
2018-06-23T01:46:31.541Z,12.16
2018-06-23T01:47:31.534Z,13.4
2018-06-23T01:48:31.519Z,14.06
2018-06-23T01:49:31.514Z,14.73
2018-06-23T01:50:31.498Z,15.4
2018-06-23T01:51:31.490Z,15.88
2018-06-23T01:52:31.473Z,15.88
2018-06-23T01:53:31.467Z,15.4
2018-06-23T01:54:31.197Z,14.92
2018-06-23T01:55:31.447Z,15.4
2018-06-23T01:56:31.433Z,15.5
2018-06-23T01:57:31.422Z,16.35
2018-06-23T01:58:31.161Z,17.78
2018-06-23T01:59:31.400Z,19.2
2018-06-23T02:00:31.129Z,19.11
2018-06-23T02:01:31.378Z,20.73
2018-06-23T02:02:31.366Z,21.86
2018-06-23T02:03:31.355Z,22.53
2018-06-23T02:04:31.347Z,23.39
2018-06-23T02:05:31.334Z,23.48
2018-06-23T02:06:31.327Z,23.29
2018-06-23T02:07:31.315Z,25.01
2018-06-23T02:08:31.300Z,26.14
2018-06-23T02:09:31.294Z,25.86
2018-06-23T02:10:31.279Z,25.76
2018-06-23T02:11:31.267Z,25.29
2018-06-23T02:12:31.267Z,25.29
2018-06-23T02:13:31.245Z,24.43
2018-06-23T02:14:30.989Z,24.15
2018-06-23T02:15:31.228Z,23.58
2018-06-23T02:16:31.215Z,22.72
2018-06-23T02:17:31.206Z,24.53
2018-06-23T02:18:31.196Z,25.67
2018-06-23T02:19:31.219Z,26.9
2018-06-23T02:20:31.168Z,29.28
2018-06-23T02:21:31.158Z,31.37
2018-06-23T02:22:30.896Z,33.47
2018-06-23T02:23:31.139Z,33.56
2018-06-23T02:24:31.136Z,32.51
2018-06-23T02:25:31.120Z,31.95
2018-06-23T02:26:31.107Z,32.14
2018-06-23T02:27:31.096Z,32.23
2018-06-23T02:28:31.089Z,31.18
2018-06-23T02:29:31.073Z,29.95
2018-06-23T02:30:31.070Z,29.09
2018-06-23T02:31:31.054Z,28.62
2018-06-23T02:32:31.046Z,27.86
2018-06-23T02:33:31.034Z,26.24
2018-06-23T02:34:31.026Z,26.14
2018-06-23T02:35:31.014Z,26.72
2018-06-23T02:36:31.001Z,26.53
2018-06-23T02:37:30.991Z,27.48
2018-06-23T02:38:30.726Z,29.66
2018-06-23T02:39:30.974Z,31.28
2018-06-23T02:40:30.958Z,32.32
2018-06-23T02:41:30.689Z,32.04
2018-06-23T02:42:30.682Z,31.95
2018-06-23T02:43:30.928Z,31.09
2018-06-23T02:44:30.915Z,31.95
2018-06-23T02:45:30.904Z,34.03
2018-06-23T02:46:30.895Z,33.18
2018-06-23T02:47:30.888Z,33.09
2018-06-23T02:48:30.870Z,34.23
2018-06-23T02:49:30.864Z,32.8
2018-06-23T02:50:30.849Z,33.28
2018-06-23T02:51:30.849Z,33.56
2018-06-23T02:52:30.829Z,33.18
2018-06-23T02:53:30.564Z,31.85
2018-06-23T02:54:30.806Z,29.85
2018-06-23T02:55:30.795Z,28.33
2018-06-23T02:56:30.786Z,26.89
2018-06-23T02:57:30.523Z,26.51
2018-06-23T02:58:30.768Z,25.65
2018-06-23T02:59:30.757Z,25.37
2018-06-23T03:00:30.744Z,25.09
2018-06-23T03:01:30.733Z,26.13
2018-06-23T03:02:30.756Z,26.04
2018-06-23T03:03:30.711Z,25.85
2018-06-23T03:04:30.449Z,25.09
2018-06-23T03:05:30.691Z,24.99
2018-06-23T03:06:30.682Z,24.9
2018-06-23T03:07:30.411Z,24.04
2018-06-23T03:08:30.658Z,23.66
2018-06-23T03:09:30.644Z,22.8
2018-06-23T03:10:30.380Z,21.95
2018-06-23T03:11:30.631Z,21.57
2018-06-23T03:12:30.616Z,20.72
2018-06-23T03:13:30.608Z,20.05
2018-06-23T03:14:30.594Z,19.38
2018-06-23T03:15:30.584Z,19.57
2018-06-23T03:16:30.575Z,19.2
2018-06-23T03:17:30.556Z,18.62
2018-06-23T03:18:30.548Z,17.77
2018-06-23T03:19:30.278Z,17.1
2018-06-23T03:20:30.264Z,16.63
2018-06-23T03:21:30.255Z,17.29
2018-06-23T03:22:30.502Z,18.72
2018-06-23T03:23:30.486Z,18.72
2018-06-23T03:24:30.476Z,17.86
2018-06-23T03:25:30.473Z,18.05
2018-06-23T03:26:30.457Z,18.34
2018-06-23T03:27:30.190Z,22.33
2018-06-23T03:28:30.180Z,24.04
2018-06-23T03:29:30.424Z,25.18
2018-06-23T03:30:30.414Z,25.18
2018-06-23T03:31:30.404Z,25.18
2018-06-23T03:32:30.390Z,24.52
2018-06-23T03:33:30.377Z,23.66
2018-06-23T03:34:30.366Z,23.19
2018-06-23T03:35:30.356Z,23.09
2018-06-23T03:36:30.345Z,22.9
2018-06-23T03:37:30.333Z,22.42
2018-06-23T03:38:30.322Z,22.24
2018-06-23T03:39:30.312Z,23.19
2018-06-23T03:40:30.300Z,24.42
2018-06-23T03:41:30.293Z,25.27
2018-06-23T03:42:30.290Z,25.27
2018-06-23T03:43:30.265Z,25.09
2018-06-23T03:44:30.253Z,25.75
2018-06-23T03:45:30.246Z,25.18
2018-06-23T03:46:29.989Z,26.81
2018-06-23T03:47:30.224Z,27.18
2018-06-23T03:48:30.216Z,27.56
2018-06-23T03:49:30.197Z,27.67
2018-06-23T03:50:30.193Z,27.48
2018-06-23T03:51:30.180Z,28.05
2018-06-23T03:52:29.908Z,27.57
2018-06-23T03:53:30.156Z,27.38
2018-06-23T03:54:29.886Z,26.51
2018-06-23T03:55:30.135Z,27
2018-06-23T03:56:30.122Z,27.57
2018-06-23T03:57:30.119Z,28.42
2018-06-23T03:58:30.101Z,27.67
2018-06-23T03:59:29.833Z,27.57
2018-06-23T04:00:30.077Z,28.52
2018-06-23T04:01:29.811Z,29.38
2018-06-23T04:02:29.800Z,28.71
2018-06-23T04:03:30.043Z,28.71
2018-06-23T04:04:30.036Z,29.19
2018-06-23T04:05:29.767Z,29.19
2018-06-23T04:06:30.019Z,30.33
2018-06-23T04:07:29.746Z,31.66
2018-06-23T04:08:29.731Z,35.46
2018-06-23T04:09:29.979Z,35.46
2018-06-23T04:10:29.968Z,35.27
2018-06-23T04:11:30.031Z,35.75
2018-06-23T04:12:29.946Z,37.74
2018-06-23T04:13:29.942Z,39.17
2018-06-23T04:14:29.928Z,39.17
2018-06-23T04:15:29.915Z,39.17
2018-06-23T04:16:29.907Z,39.55
2018-06-23T04:17:29.894Z,39.45
2018-06-23T04:18:29.882Z,39.84
2018-06-23T04:19:29.877Z,42.79
2018-06-23T04:20:29.860Z,43.16
2018-06-23T04:21:29.855Z,42.79
2018-06-23T04:22:29.838Z,41.26
2018-06-23T04:23:29.829Z,41.93
2018-06-23T04:24:29.821Z,43.45
2018-06-23T04:25:29.806Z,42.6
2018-06-23T04:26:29.802Z,41.74
2018-06-23T04:27:29.786Z,42.5
2018-06-23T04:28:29.520Z,46.78
2018-06-23T04:29:29.766Z,49.44
2018-06-23T04:30:29.753Z,48.58
2018-06-23T04:31:29.742Z,49.25
2018-06-23T04:32:29.735Z,48.77
2018-06-23T04:33:29.725Z,48.68
2018-06-23T04:34:29.715Z,49.82
2018-06-23T04:35:29.701Z,52.29
2018-06-23T04:36:29.695Z,52.96
2018-06-23T04:37:29.690Z,50.01
2018-06-23T04:38:29.417Z,50.29
2018-06-23T04:39:29.659Z,50.39
2018-06-23T04:40:29.646Z,50.39
2018-06-23T04:41:29.637Z,49.73
2018-06-23T04:42:29.631Z,50.96
2018-06-23T04:43:29.617Z,52.67
2018-06-23T04:44:29.607Z,54.29
2018-06-23T04:45:29.599Z,55.24
2018-06-23T04:46:29.588Z,56.79
2018-06-23T04:47:29.579Z,55.08
2018-06-23T04:48:29.565Z,53.72
2018-06-23T04:49:29.552Z,53.55
2018-06-23T04:50:29.544Z,58.22
2018-06-23T04:51:29.536Z,58.85
2018-06-23T04:52:29.520Z,58.37
2018-06-23T04:53:29.335Z,56.95
2018-06-23T04:54:29.241Z,56.79
2018-06-23T04:55:29.233Z,55.36
2018-06-23T04:56:29.477Z,54.6
2018-06-23T04:57:29.476Z,58.31
2018-06-23T04:58:29.199Z,58.69
2018-06-23T04:59:29.248Z,58.66
2018-06-23T05:00:29.562Z,59.14
2018-06-23T05:01:29.432Z,57.71
2018-06-23T05:02:29.418Z,55.65
2018-06-23T05:03:29.403Z,56.41
2018-06-23T05:04:29.400Z,55.36
2018-06-23T05:05:29.387Z,54.98
2018-06-23T05:06:29.375Z,54.79
2018-06-23T05:07:29.368Z,57.84
2018-06-23T05:08:29.357Z,60.21
2018-06-23T05:09:29.351Z,58.5
2018-06-23T05:10:29.332Z,58.5
2018-06-23T05:11:29.065Z,59.17
2018-06-23T05:12:29.434Z,60.97
2018-06-23T05:13:29.303Z,63.26
2018-06-23T05:14:29.289Z,63.45
2018-06-23T05:15:29.280Z,62.78
2018-06-23T05:16:29.264Z,63.17
2018-06-23T05:17:29.255Z,62.59
2018-06-23T05:18:29.246Z,61.74
2018-06-23T05:19:29.240Z,60.12
2018-06-23T05:20:29.234Z,60.97
2018-06-23T05:21:29.215Z,60.12
2018-06-23T05:22:29.214Z,62.59
2018-06-23T05:23:29.202Z,66.97
2018-06-23T05:24:29.186Z,66.97
2018-06-23T05:25:29.175Z,68.3
2018-06-23T05:26:29.165Z,69.63
2018-06-23T05:27:29.160Z,68.59
2018-06-23T05:28:29.144Z,70.58
2018-06-23T05:29:29.152Z,74.96
2018-06-23T05:30:29.120Z,75.62
2018-06-23T05:31:29.112Z,73.91
2018-06-23T05:32:29.105Z,72.49
2018-06-23T05:33:29.094Z,70.1
2018-06-23T05:34:29.083Z,68.87
2018-06-23T05:35:29.074Z,68.77
2018-06-23T05:36:29.060Z,73.34
2018-06-23T05:37:28.793Z,72.67
2018-06-23T05:38:29.040Z,73.82
2018-06-23T05:39:29.028Z,70.39
2018-06-23T05:40:29.028Z,73.53
2018-06-23T05:41:29.011Z,74.77
2018-06-23T05:42:28.998Z,75.91
2018-06-23T05:43:28.992Z,76.01
2018-06-23T05:44:28.720Z,75.72
2018-06-23T05:45:28.711Z,74.29
2018-06-23T05:46:28.954Z,73.38
2018-06-23T05:47:28.689Z,74.33
2018-06-23T05:48:28.938Z,78.61
2018-06-23T05:49:28.924Z,78.99
2018-06-23T05:50:28.914Z,80.61
2018-06-23T05:51:28.656Z,83.75
2018-06-23T05:52:28.904Z,87.94
2018-06-23T05:53:28.884Z,84.89
2018-06-23T05:54:28.874Z,82.61
2018-06-23T05:55:28.613Z,80.99
2018-06-23T05:56:28.860Z,82.04
2018-06-23T05:57:28.588Z,83.65
2018-06-23T05:58:28.834Z,84.04
2018-06-23T05:59:28.825Z,84.08
2018-06-23T06:00:28.817Z,85.03
2018-06-23T06:01:28.808Z,91.03
2018-06-23T06:02:28.796Z,88.65
2018-06-23T06:03:28.787Z,86.84
2018-06-23T06:04:28.775Z,89.22
2018-06-23T06:05:28.772Z,92.08
2018-06-23T06:06:28.499Z,92.08
2018-06-23T06:07:28.751Z,92.27
2018-06-23T06:08:28.739Z,91.13
2018-06-23T06:09:28.730Z,96.17
2018-06-23T06:10:28.724Z,94.56
2018-06-23T06:11:28.709Z,95.79
2018-06-23T06:12:28.703Z,95.22
2018-06-23T06:13:28.437Z,99.99
2018-06-23T06:14:28.428Z,99.99
2018-06-23T06:15:28.674Z,99.99
2018-06-23T06:16:28.664Z,99.99
2018-06-23T06:17:28.657Z,99.99
2018-06-23T06:18:28.646Z,99.99
2018-06-23T06:19:28.379Z,99.99
2018-06-23T06:20:28.627Z,99.99
2018-06-23T06:21:28.361Z,98.18
2018-06-23T06:22:28.607Z,99.41
2018-06-23T06:23:28.601Z,99.99
2018-06-23T06:24:28.591Z,99.99
2018-06-23T06:25:28.583Z,99.99
2018-06-23T06:26:28.315Z,99.99
2018-06-23T06:27:28.563Z,99.99
2018-06-23T06:28:28.555Z,99.99
2018-06-23T06:29:28.342Z,99.99
2018-06-23T06:30:28.279Z,99.99
2018-06-23T06:31:28.526Z,99.99
2018-06-23T06:32:28.514Z,99.99
2018-06-23T06:33:28.508Z,99.99
2018-06-23T06:34:28.243Z,99.99
2018-06-23T06:35:28.237Z,99.99
2018-06-23T06:36:28.487Z,99.99
2018-06-23T06:37:28.472Z,99.99
2018-06-23T06:38:28.465Z,99.99
2018-06-23T06:39:28.458Z,99.99
2018-06-23T06:40:28.456Z,99.99
2018-06-23T06:41:28.184Z,99.99
2018-06-23T06:42:28.432Z,99.99
2018-06-23T06:43:28.167Z,99.99
2018-06-23T06:44:28.449Z,99.99
2018-06-23T06:45:28.151Z,99.99
2018-06-23T06:46:28.410Z,99.99
2018-06-23T06:47:28.393Z,99.99
2018-06-23T06:48:28.126Z,99.99
2018-06-23T06:49:28.119Z,99.99
2018-06-23T06:50:28.367Z,99.99
2018-06-23T06:51:28.104Z,99.99
2018-06-23T06:52:28.350Z,99.99
2018-06-23T06:53:28.085Z,99.99
2018-06-23T06:54:28.336Z,99.99
2018-06-23T06:55:28.071Z,99.99
2018-06-23T06:56:28.322Z,99.99
2018-06-23T06:57:28.063Z,99.99
2018-06-23T06:58:28.306Z,99.99
2018-06-23T06:59:28.299Z,99.99
2018-06-23T07:00:28.292Z,99.99
2018-06-23T07:01:28.283Z,99.99
2018-06-23T07:02:28.337Z,99.99
2018-06-23T07:03:28.313Z,99.99
2018-06-23T07:04:28.004Z,99.99
2018-06-23T07:05:27.996Z,99.99
2018-06-23T07:06:28.248Z,99.99
2018-06-23T07:07:28.239Z,99.99
2018-06-23T07:08:28.239Z,99.99
2018-06-23T07:09:28.227Z,99.99
2018-06-23T07:10:28.218Z,99.99
2018-06-23T07:11:28.212Z,99.99
2018-06-23T07:12:28.205Z,99.99
2018-06-23T07:13:27.937Z,99.99
2018-06-23T07:14:27.930Z,99.99
2018-06-23T07:15:28.215Z,99.99
2018-06-23T07:16:28.174Z,99.99
2018-06-23T07:17:28.171Z,99.99
2018-06-23T07:18:28.160Z,99.99
2018-06-23T07:19:28.160Z,99.99
2018-06-23T07:20:27.894Z,99.99
2018-06-23T07:21:28.138Z,99.99
2018-06-23T07:22:27.876Z,99.99
2018-06-23T07:23:28.224Z,99.99
2018-06-23T07:24:28.125Z,99.99
2018-06-23T07:25:28.115Z,99.99
2018-06-23T07:26:28.106Z,99.99
2018-06-23T07:27:28.102Z,99.99
2018-06-23T07:28:28.116Z,99.99
2018-06-23T07:29:28.087Z,99.99
2018-06-23T07:30:28.081Z,99.99
2018-06-23T07:31:28.086Z,99.99
2018-06-23T07:32:28.067Z,93.93
2018-06-23T07:33:27.806Z,89.05
2018-06-23T07:34:27.866Z,95.17
2018-06-23T07:35:28.056Z,89.43
2018-06-23T07:36:27.788Z,80.9
2018-06-23T07:37:27.783Z,78.22
2018-06-23T07:38:28.038Z,78.09
2018-06-23T07:39:27.770Z,79.14
2018-06-23T07:40:28.024Z,75.85
2018-06-23T07:41:28.027Z,79.77
2018-06-23T07:42:28.014Z,80.11
2018-06-23T07:43:28.009Z,83.46
2018-06-23T07:44:28.000Z,86.33
2018-06-23T07:45:27.995Z,87
2018-06-23T07:46:27.998Z,87.38
2018-06-23T07:47:27.731Z,85.94
2018-06-23T07:48:27.990Z,85.75
2018-06-23T07:49:27.722Z,93.79
2018-06-23T07:52:51.202Z,82.26
2018-06-23T07:53:51.198Z,81.02
2018-06-23T07:54:51.190Z,75.66
2018-06-23T07:55:51.186Z,76.1
2018-06-23T07:56:51.183Z,76
2018-06-23T07:57:51.177Z,84.42
2018-06-23T07:58:50.912Z,85.47
2018-06-23T07:59:51.167Z,87.57
2018-06-23T08:00:51.162Z,85.85
2018-06-23T08:01:51.159Z,83.08
2018-06-23T08:02:50.893Z,84.42
2018-06-23T08:03:50.890Z,87.29
2018-06-23T08:04:51.138Z,83.42
2018-06-23T08:05:51.132Z,82.28
2018-06-23T08:06:51.125Z,83.13
2018-06-23T08:07:51.126Z,82.94
2018-06-23T08:08:51.122Z,86.1
2018-06-23T08:09:51.121Z,89.06
2018-06-23T08:10:50.849Z,88.92
2018-06-23T08:11:50.976Z,89.97
2018-06-23T08:12:51.093Z,88.25
2018-06-23T08:13:51.093Z,91.78
2018-06-23T08:14:50.824Z,91.45
2018-06-23T08:15:51.079Z,93.84
2018-06-23T08:16:51.073Z,98.13
2018-06-23T08:17:51.073Z,99.99
2018-06-23T08:18:51.060Z,99.99
2018-06-23T08:19:51.064Z,99.99
2018-06-23T08:20:51.058Z,99.99
2018-06-23T08:21:51.042Z,99.99
2018-06-23T08:22:50.778Z,99.99
2018-06-23T08:23:51.031Z,99.99
2018-06-23T08:24:51.020Z,99.99
2018-06-23T08:25:50.760Z,99.99
2018-06-23T08:26:51.009Z,99.99
2018-06-23T08:27:51.019Z,99.99
2018-06-23T08:28:51.000Z,99.99
2018-06-23T08:29:50.997Z,99.99
2018-06-23T08:30:50.983Z,99.99
2018-06-23T08:31:51.091Z,99.99
2018-06-23T08:32:50.971Z,99.99
2018-06-23T08:33:50.708Z,99.99
2018-06-23T08:34:50.697Z,99.99
2018-06-23T08:35:50.952Z,99.99
2018-06-23T08:36:50.944Z,99.99
2018-06-23T08:37:50.698Z,99.99
2018-06-23T08:38:50.929Z,99.99
2018-06-23T08:39:50.925Z,99.99
2018-06-23T08:40:50.918Z,99.99
2018-06-23T08:41:50.909Z,99.99
2018-06-23T08:42:50.903Z,99.99
2018-06-23T08:43:50.644Z,99.99
2018-06-23T08:44:50.888Z,99.99
2018-06-23T08:45:50.885Z,99.99
2018-06-23T08:46:50.873Z,99.99
2018-06-23T08:47:50.868Z,99.99
2018-06-23T08:48:50.870Z,99.99
2018-06-23T08:49:50.857Z,99.99
2018-06-23T08:50:50.591Z,99.99
2018-06-23T08:51:50.842Z,99.99
2018-06-23T08:52:50.832Z,99.99
2018-06-23T08:53:50.831Z,99.99
2018-06-23T08:54:50.816Z,99.99
2018-06-23T08:55:50.815Z,99.99
2018-06-23T08:56:50.822Z,99.99
2018-06-23T08:57:50.797Z,99.99
2018-06-23T08:58:50.795Z,99.99
2018-06-23T08:59:50.783Z,99.99
2018-06-23T09:00:50.777Z,99.99
2018-06-23T09:01:50.887Z,99.99
2018-06-23T09:02:51.004Z,99.99
2018-06-23T09:03:50.763Z,99.99
2018-06-23T09:04:50.754Z,99.99
2018-06-23T09:05:50.743Z,99.99
2018-06-23T09:06:50.486Z,99.99
2018-06-23T09:07:50.734Z,99.99
2018-06-23T09:08:50.728Z,99.99
2018-06-23T09:09:50.718Z,99.99
2018-06-23T09:10:50.766Z,99.99
2018-06-23T09:11:50.704Z,99.99
2018-06-23T09:12:50.439Z,99.99
2018-06-23T09:13:50.688Z,99.99
2018-06-23T09:14:50.426Z,99.99
2018-06-23T09:15:50.677Z,99.99
2018-06-23T09:16:50.769Z,99.99
2018-06-23T09:17:50.404Z,99.99
2018-06-23T09:18:50.652Z,99.99
2018-06-23T09:19:50.393Z,99.99
2018-06-23T09:20:50.638Z,99.99
2018-06-23T09:21:50.633Z,99.99
2018-06-23T09:22:50.628Z,99.99
2018-06-23T09:23:50.616Z,99.99
2018-06-23T09:24:50.615Z,99.99
2018-06-23T09:25:50.680Z,99.99
2018-06-23T09:26:50.342Z,99.99
2018-06-23T09:27:50.587Z,99.99
2018-06-23T09:28:50.320Z,99.99
2018-06-23T09:29:50.569Z,99.99
2018-06-23T09:30:50.561Z,99.99
2018-06-23T09:31:50.554Z,99.99
2018-06-23T09:32:50.551Z,99.99
2018-06-23T09:33:50.284Z,99.99
2018-06-23T09:34:50.531Z,99.99
2018-06-23T09:35:50.529Z,99.99
2018-06-23T09:36:50.516Z,99.99
2018-06-23T09:37:50.250Z,99.99
2018-06-23T09:38:50.539Z,99.99
2018-06-23T09:39:50.491Z,99.99
2018-06-23T09:40:50.226Z,99.99
2018-06-23T09:41:50.486Z,99.99
2018-06-23T09:42:50.475Z,99.99
2018-06-23T09:43:50.467Z,99.99
2018-06-23T09:44:50.454Z,99.99
2018-06-23T09:45:50.587Z,97.61
2018-06-23T09:46:50.182Z,94.56
2018-06-23T09:47:50.431Z,94.84
2018-06-23T09:48:50.426Z,96.08
2018-06-23T09:49:50.412Z,95.89
2018-06-23T09:50:50.153Z,94.08
2018-06-23T09:51:50.143Z,96.75
2018-06-23T09:52:50.427Z,98.46
2018-06-23T09:53:50.380Z,97.99
2018-06-23T09:54:50.384Z,97.22
2018-06-23T09:55:50.384Z,96.65
2018-06-23T09:56:50.358Z,99.51
2018-06-23T09:57:50.363Z,98.85
2018-06-23T09:58:50.347Z,99.99
2018-06-23T09:59:50.080Z,99.99
2018-06-23T10:00:50.329Z,98.36
2018-06-23T10:01:50.319Z,97.51
2018-06-23T10:02:50.313Z,98.32
2018-06-23T10:03:50.301Z,95.7
2018-06-23T10:04:50.295Z,94.74
2018-06-23T10:05:50.291Z,93.65
2018-06-23T10:06:50.279Z,92.08
2018-06-23T10:07:50.272Z,88.84
2018-06-23T10:08:50.271Z,90.64
2018-06-23T10:09:50.257Z,88.93
2018-06-23T10:10:50.249Z,85.84
2018-06-23T10:11:50.242Z,84.12
2018-06-23T10:12:49.975Z,83.84
2018-06-23T10:13:50.223Z,80.31
2018-06-23T10:14:50.001Z,80.41
2018-06-23T10:15:50.212Z,80.02
2018-06-23T10:16:50.200Z,76.31
2018-06-23T10:17:50.189Z,76.4
2018-06-23T10:18:50.186Z,76.69
2018-06-23T10:19:50.173Z,77.93
2018-06-23T10:20:50.164Z,75.16
2018-06-23T10:21:50.157Z,77.07
2018-06-23T10:22:50.151Z,76.79
2018-06-23T10:23:50.142Z,73.07
2018-06-23T10:24:50.137Z,65.92
2018-06-23T10:25:50.122Z,65.73
2018-06-23T10:26:50.127Z,70.69
2018-06-23T10:27:50.109Z,70.59
2018-06-23T10:28:49.839Z,70.5
2018-06-23T10:29:50.085Z,66.78
2018-06-23T10:30:49.823Z,68.5
2018-06-23T10:31:50.075Z,68.5
2018-06-23T10:32:50.067Z,69.87
2018-06-23T10:33:50.053Z,67.26
2018-06-23T10:34:49.786Z,62.81
2018-06-23T10:35:50.041Z,60.24
2018-06-23T10:36:50.035Z,61
2018-06-23T10:37:50.025Z,60.14
2018-06-23T10:38:50.189Z,59.38
2018-06-23T10:39:50.003Z,63.76
2018-06-23T10:40:49.739Z,70.72
2018-06-23T10:41:49.996Z,68.72
2018-06-23T10:42:49.725Z,68.72
2018-06-23T10:43:49.964Z,68.15
2018-06-23T10:44:49.961Z,64.02
2018-06-23T10:45:49.953Z,61.16
2018-06-23T10:46:49.943Z,64.87
2018-06-23T10:47:49.683Z,62.59
2018-06-23T10:48:49.923Z,60.21
2018-06-23T10:49:49.916Z,52.49
2018-06-23T10:50:49.911Z,60.4
2018-06-23T10:51:49.909Z,59.26
2018-06-23T10:52:49.894Z,57.64
2018-06-23T10:53:49.882Z,57.26
2018-06-23T10:54:49.879Z,57.73
2018-06-23T10:55:49.610Z,57.45
2018-06-23T10:56:49.860Z,56.3
2018-06-23T10:57:49.641Z,54.59
2018-06-23T10:58:49.842Z,50.97
2018-06-23T10:59:49.835Z,49.44
2018-06-23T11:00:49.563Z,48.02
2018-06-23T11:01:49.555Z,43.54
2018-06-23T11:02:49.808Z,40.01
2018-06-23T11:03:49.794Z,38.78
2018-06-23T11:04:49.994Z,43.54
2018-06-23T11:05:49.527Z,45.25
2018-06-23T11:06:49.510Z,40.87
2018-06-23T11:07:49.756Z,39.73
2018-06-23T11:08:49.755Z,37.82
2018-06-23T11:09:49.740Z,35.25
2018-06-23T11:10:49.731Z,34.2
2018-06-23T11:11:49.718Z,41.44
2018-06-23T11:12:49.719Z,41.44
2018-06-23T11:13:49.708Z,41.25
2018-06-23T11:14:49.694Z,41.16
2018-06-23T11:15:49.686Z,37.99
2018-06-23T11:16:49.683Z,39.7
2018-06-23T11:17:49.672Z,39.7
2018-06-23T11:18:49.666Z,37.61
2018-06-23T11:19:49.660Z,35.04
2018-06-23T11:20:49.639Z,34.38
2018-06-23T11:21:49.377Z,33.72
2018-06-23T11:22:49.623Z,32.47
2018-06-23T11:23:49.357Z,30.94
2018-06-23T11:24:49.611Z,29.9
2018-06-23T11:25:49.594Z,31.04
2018-06-23T11:26:49.589Z,30.47
2018-06-23T11:27:49.576Z,33.61
2018-06-23T11:28:49.572Z,33.04
2018-06-23T11:29:49.303Z,31.52
2018-06-23T11:30:49.548Z,32.85
2018-06-23T11:31:49.285Z,31.13
2018-06-23T11:32:49.534Z,29.71
2018-06-23T11:33:49.524Z,27.9
2018-06-23T11:34:49.513Z,30.37
2018-06-23T11:35:49.245Z,31.23
2018-06-23T11:36:49.501Z,30.37
2018-06-23T11:37:49.489Z,28.47
2018-06-23T11:38:49.482Z,26.1
2018-06-23T11:39:49.227Z,24.87
2018-06-23T11:40:49.200Z,23.63
2018-06-23T11:41:49.192Z,22.86
2018-06-23T11:42:49.449Z,31.53
2018-06-23T11:43:49.432Z,32.68
2018-06-23T11:44:49.423Z,33.34
2018-06-23T11:45:49.423Z,33.25
2018-06-23T11:46:49.400Z,34.39
2018-06-23T11:47:49.396Z,35.53
2018-06-23T11:48:49.386Z,36.01
2018-06-23T11:49:49.381Z,38.96
2018-06-23T11:50:49.120Z,38.68
2018-06-23T11:51:49.100Z,37.92
2018-06-23T11:52:49.093Z,38.01
2018-06-23T11:53:49.084Z,35.91
2018-06-23T11:54:49.332Z,33.91
2018-06-23T11:55:49.322Z,32.48
2018-06-23T11:56:49.060Z,30.1
2018-06-23T11:57:49.305Z,28.49
2018-06-23T11:58:49.038Z,28.67
2018-06-23T11:59:49.031Z,27.91
2018-06-23T12:00:49.282Z,35.82
2018-06-23T12:01:49.036Z,39.44
2018-06-23T12:02:49.260Z,35.91
2018-06-23T12:03:49.248Z,34.48
2018-06-23T12:04:49.240Z,32.88
2018-06-23T12:05:49.235Z,32.21
2018-06-23T12:06:49.227Z,34.31
2018-06-23T12:07:49.217Z,37.93
2018-06-23T12:08:49.203Z,36.88
2018-06-23T12:09:49.195Z,35.17
2018-06-23T12:10:49.185Z,35.64
2018-06-23T12:11:49.181Z,38.89
2018-06-23T12:12:49.167Z,38.7
2018-06-23T12:13:49.163Z,38.51
2018-06-23T12:14:49.155Z,39.17
2018-06-23T12:15:49.147Z,40.6
2018-06-23T12:16:49.136Z,41.65
2018-06-23T12:18:48.859Z,38.12
2018-06-23T12:19:49.110Z,33.34
2018-06-23T12:20:49.099Z,31.64
2018-06-23T12:21:49.092Z,32.12
2018-06-23T12:22:49.084Z,30.69
2018-06-23T12:23:49.082Z,28.88
2018-06-23T12:24:49.067Z,27.83
2018-06-23T12:25:49.060Z,30.21
2018-06-23T12:26:48.790Z,38.41
2018-06-23T12:27:48.781Z,40.7
2018-06-23T12:28:49.032Z,41.46
2018-06-23T12:29:49.024Z,38.41
2018-06-23T12:30:48.757Z,37.08
2018-06-23T12:31:48.751Z,41.46
2018-06-23T12:32:48.997Z,40.32
2018-06-23T12:33:48.777Z,38.6
2018-06-23T12:34:48.993Z,36.69
2018-06-23T12:35:48.970Z,35.93
2018-06-23T12:36:48.704Z,35.55
2018-06-23T12:37:48.954Z,35.55
2018-06-23T12:38:48.942Z,36.51
2018-06-23T12:39:48.935Z,38.51
2018-06-23T12:40:48.926Z,40.8
2018-06-23T12:41:49.058Z,46.23
2018-06-23T12:42:48.910Z,45.47
2018-06-23T12:43:48.905Z,44.23
2018-06-23T12:44:48.892Z,43.37
2018-06-23T12:45:48.888Z,42.51
2018-06-23T12:46:48.877Z,43.37
2018-06-23T12:47:48.869Z,42.99
2018-06-23T12:48:48.861Z,41.56
2018-06-23T12:49:48.599Z,39.84
2018-06-23T12:50:48.843Z,36.88
2018-06-23T12:51:48.834Z,35.27
2018-06-23T12:52:48.826Z,35.64
2018-06-23T12:53:48.822Z,35.74
2018-06-23T12:54:48.556Z,35.27
2018-06-23T12:55:48.797Z,33.55
2018-06-23T12:56:48.802Z,32.5
2018-06-23T12:57:48.784Z,31.93
2018-06-23T12:58:48.778Z,30.12